Archiv-/Tagesdaten

--Timestamp---	Temp	Chill	HIndex	Humid	Dewpt	 Wind 	HiWind	WindDir	Rain 	Barom	Solar	 ET  	 UV 
--------------	----	-----	------	-----	-----	------	------	-------	-----	-----	-----	-----	----
20090629 00:00	17.1	17.1	17.1	93	16.0	0	0	-100000	0.0	1014.3	0	0.000	0.0
20090629 00:05	17.1	17.1	17.1	94	16.1	0	2	180	0.0	1014.2	0	0.000	0.0
20090629 00:10	17.2	17.2	17.2	94	16.2	2	6	180	0.0	1014.2	0	0.000	0.0
20090629 00:15	17.2	17.2	17.2	94	16.2	3	6	180	0.0	1014.2	0	0.000	0.0
20090629 00:20	17.2	17.2	17.2	94	16.2	2	5	180	0.0	1014.2	0	0.000	0.0
20090629 00:25	17.2	17.2	17.2	94	16.2	2	5	180	0.0	1014.2	0	0.000	0.0
20090629 00:30	17.2	17.2	17.2	94	16.2	2	5	180	0.0	1014.2	0	0.000	0.0
20090629 00:35	17.1	17.1	17.1	94	16.1	0	5	180	0.0	1014.2	0	0.000	0.0
20090629 00:40	17.0	17.0	17.0	94	16.0	0	2	180	0.0	1014.2	0	0.000	0.0
20090629 00:45	16.9	16.9	16.9	93	15.8	0	3	180	0.0	1014.2	0	0.000	0.0
20090629 00:50	16.8	16.8	16.8	93	15.7	0	2	180	0.0	1014.3	0	0.000	0.0
20090629 00:55	16.8	16.8	16.8	94	15.8	0	2	180	0.0	1014.2	0	0.000	0.0
20090629 01:00	16.7	16.7	16.7	94	15.7	0	0	-100000	0.0	1014.2	0	0.000	0.0
20090629 01:05	16.7	16.7	16.7	94	15.7	0	2	180	0.0	1014.3	0	0.000	0.0
20090629 01:10	16.6	16.6	16.6	94	15.6	0	2	180	0.0	1014.3	0	0.000	0.0
20090629 01:15	16.6	16.6	16.6	93	15.4	0	0	-100000	0.0	1014.3	0	0.000	0.0
20090629 01:20	16.5	16.5	16.5	93	15.4	0	0	-100000	0.0	1014.4	0	0.000	0.0
20090629 01:25	16.4	16.4	16.4	93	15.3	0	0	-100000	0.0	1014.3	0	0.000	0.0
20090629 01:30	16.3	16.3	16.3	94	15.4	0	0	-100000	0.0	1014.5	0	0.000	0.0
20090629 01:35	16.3	16.3	16.3	94	15.3	0	2	180	0.2	1014.5	0	0.000	0.0
20090629 01:40	16.3	16.3	16.3	94	15.3	0	2	180	0.0	1014.5	0	0.000	0.0
20090629 01:45	16.2	16.2	16.2	94	15.3	0	2	180	0.0	1014.5	0	0.000	0.0
20090629 01:50	16.2	16.2	16.2	94	15.3	0	0	-100000	0.0	1014.5	0	0.000	0.0
20090629 01:55	16.2	16.2	16.2	94	15.2	0	0	-100000	0.0	1014.5	0	0.000	0.0
20090629 02:00	16.1	16.1	16.1	94	15.1	0	0	-100000	0.0	1014.5	0	0.000	0.0
20090629 02:05	15.9	15.9	15.9	94	15.0	0	0	-100000	0.0	1014.4	0	0.000	0.0
20090629 02:10	15.9	15.9	15.9	94	14.9	0	0	-100000	0.0	1014.5	0	0.000	0.0
20090629 02:15	15.8	15.8	15.8	94	14.8	0	0	-100000	0.0	1014.5	0	0.000	0.0
20090629 02:20	15.7	15.7	15.7	94	14.7	0	0	-100000	0.0	1014.5	0	0.000	0.0
20090629 02:25	15.7	15.7	15.7	94	14.7	0	2	180	0.0	1014.5	0	0.000	0.0
20090629 02:30	15.7	15.7	15.7	94	14.7	0	2	180	0.0	1014.5	0	0.000	0.0
20090629 02:35	15.6	15.6	15.6	94	14.6	0	0	-100000	0.0	1014.4	0	0.000	0.0
20090629 02:40	15.6	15.6	15.6	94	14.6	0	0	-100000	0.0	1014.5	0	0.000	0.0
20090629 02:45	15.5	15.5	15.5	94	14.5	0	0	-100000	0.0	1014.4	0	0.000	0.0
20090629 02:50	15.5	15.5	15.5	94	14.5	0	2	180	0.0	1014.4	0	0.000	0.0
20090629 02:55	15.6	15.6	15.6	94	14.6	0	0	-100000	0.0	1014.4	0	0.000	0.0
20090629 03:00	15.6	15.6	15.6	94	14.6	0	2	180	0.0	1014.4	0	0.000	0.0
20090629 03:05	15.6	15.6	15.6	94	14.6	0	0	-100000	0.0	1014.3	0	0.000	0.0
20090629 03:10	15.7	15.7	15.7	94	14.7	0	0	-100000	0.0	1014.3	0	0.000	0.0
20090629 03:15	15.7	15.7	15.7	94	14.7	0	0	-100000	0.0	1014.3	0	0.000	0.0
20090629 03:20	15.7	15.7	15.7	94	14.7	0	0	-100000	0.0	1014.2	0	0.000	0.0
20090629 03:25	15.7	15.7	15.7	94	14.7	0	0	-100000	0.0	1014.2	0	0.000	0.0
20090629 03:30	15.7	15.7	15.7	94	14.7	0	0	-100000	0.0	1014.2	0	0.000	0.0
20090629 03:35	15.7	15.7	15.7	94	14.7	0	2	180	0.0	1014.2	0	0.000	0.0
20090629 03:40	15.7	15.7	15.7	95	14.9	0	2	180	0.0	1014.2	0	0.000	0.0
20090629 03:45	15.7	15.7	15.7	95	14.9	2	5	180	0.0	1014.2	0	0.000	0.0
20090629 03:50	15.6	15.6	15.6	95	14.8	0	3	180	0.0	1014.2	0	0.000	0.0
20090629 03:55	15.6	15.6	15.6	94	14.6	2	5	180	0.0	1014.3	0	0.000	0.0
20090629 04:00	15.6	15.6	15.6	94	14.6	0	2	180	0.2	1014.3	0	0.000	0.0
20090629 04:05	15.6	15.6	15.6	94	14.6	0	2	180	0.0	1014.3	0	0.000	0.0
20090629 04:10	15.6	15.6	15.6	94	14.6	0	2	180	0.0	1014.3	0	0.000	0.0
20090629 04:15	15.6	15.6	15.6	95	14.8	0	2	180	0.0	1014.4	0	0.000	0.0
20090629 04:20	15.6	15.6	15.6	95	14.8	0	2	180	0.0	1014.3	0	0.000	0.0
20090629 04:25	15.6	15.6	15.6	94	14.6	0	2	180	0.0	1014.4	0	0.000	0.0
20090629 04:30	15.6	15.6	15.6	95	14.8	0	2	180	0.0	1014.5	0	0.000	0.0
20090629 04:35	15.5	15.5	15.5	95	14.7	0	2	180	0.0	1014.5	0	0.000	0.0
20090629 04:40	15.4	15.4	15.4	95	14.6	0	3	180	0.0	1014.5	0	0.000	0.0
20090629 04:45	15.4	15.4	15.4	95	14.6	0	2	180	0.0	1014.4	0	0.000	0.0
20090629 04:50	15.5	15.5	15.5	95	14.7	2	5	180	0.0	1014.5	0	0.000	0.0
20090629 04:55	15.5	15.5	15.5	95	14.7	2	5	180	0.0	1014.5	0	0.000	0.0
20090629 05:00	15.4	15.4	15.4	95	14.6	0	3	180	0.0	1014.5	0	0.000	0.0
20090629 05:05	15.4	15.4	15.4	95	14.6	0	5	180	0.0	1014.6	0	0.000	0.0
20090629 05:10	15.4	15.4	15.4	95	14.6	0	2	180	0.0	1014.7	0	0.000	0.0
20090629 05:15	15.4	15.4	15.4	95	14.6	0	2	180	0.0	1014.7	0	0.000	0.0
20090629 05:20	15.4	15.4	15.4	95	14.6	0	2	180	0.0	1014.8	0	0.000	0.0
20090629 05:25	15.3	15.3	15.3	95	14.5	0	2	180	0.0	1014.8	0	0.000	0.0
20090629 05:30	15.4	15.4	15.4	95	14.6	0	2	180	0.0	1014.9	1	0.000	0.0
20090629 05:35	15.3	15.3	15.3	95	14.5	0	0	-100000	0.0	1014.9	5	0.000	0.0
20090629 05:40	15.4	15.4	15.4	95	14.6	0	2	180	0.0	1014.8	9	0.000	0.0
20090629 05:45	15.4	15.4	15.4	95	14.6	0	2	180	0.0	1014.8	11	0.000	0.0
20090629 05:50	15.3	15.3	15.3	95	14.5	0	0	-100000	0.0	1014.8	14	0.000	0.0
20090629 05:55	15.3	15.3	15.3	95	14.5	0	2	180	0.0	1014.9	18	0.000	0.0
20090629 06:00	15.3	15.3	15.3	95	14.5	0	2	180	0.0	1014.9	20	0.000	0.0
20090629 06:05	15.3	15.3	15.3	95	14.5	0	2	180	0.0	1014.9	21	0.000	0.0
20090629 06:10	15.4	15.4	15.4	95	14.6	0	2	180	0.0	1014.9	23	0.000	0.0
20090629 06:15	15.4	15.4	15.4	95	14.6	0	3	180	0.0	1014.9	24	0.000	0.0
20090629 06:20	15.4	15.4	15.4	95	14.6	0	0	-100000	0.0	1014.9	22	0.000	0.0
20090629 06:25	15.4	15.4	15.4	95	14.6	0	2	180	0.0	1015.0	22	0.000	0.0
20090629 06:30	15.4	15.4	15.4	95	14.6	0	3	180	0.0	1015.0	27	0.000	0.0
20090629 06:35	15.3	15.3	15.3	95	14.5	0	3	180	0.0	1015.1	32	0.000	0.0
20090629 06:40	15.4	15.4	15.4	95	14.6	0	2	180	0.0	1015.1	38	0.000	0.0
20090629 06:45	15.4	15.4	15.4	95	14.6	0	3	68	0.0	1015.1	44	0.000	0.0
20090629 06:50	15.4	15.4	15.4	95	14.6	0	3	45	0.0	1015.0	54	0.000	0.0
20090629 06:55	15.4	15.4	15.4	95	14.6	2	6	45	0.0	1015.0	63	0.000	0.0
20090629 07:00	15.5	15.5	15.5	95	14.7	0	3	22	0.0	1015.1	73	0.025	0.0
20090629 07:05	15.6	15.6	15.6	95	14.8	0	0	-100000	0.0	1015.2	83	0.000	0.0
20090629 07:10	15.7	15.7	15.7	95	14.9	0	2	248	0.0	1015.2	95	0.000	0.0
20090629 07:15	15.8	15.8	15.8	95	15.0	0	0	-100000	0.0	1015.1	98	0.000	0.0
20090629 07:20	15.9	15.9	15.9	95	15.1	0	0	-100000	0.0	1015.2	98	0.000	0.0
20090629 07:25	15.8	15.8	15.8	95	15.0	0	2	248	0.2	1015.2	95	0.000	0.0
20090629 07:30	15.8	15.8	15.8	95	15.0	0	0	-100000	0.0	1015.1	96	0.000	0.0
20090629 07:35	15.9	15.9	15.9	95	15.1	0	2	248	0.0	1015.1	105	0.000	0.2
20090629 07:40	15.9	15.9	15.9	95	15.1	0	2	248	0.0	1015.2	106	0.000	0.5
20090629 07:45	15.9	15.9	15.9	95	15.1	0	2	248	0.0	1015.3	110	0.000	0.5
20090629 07:50	16.1	16.1	16.1	95	15.3	2	5	248	0.0	1015.3	123	0.000	0.5
20090629 07:55	16.2	16.2	16.2	95	15.4	3	6	248	0.0	1015.3	130	0.000	0.6
20090629 08:00	16.2	16.2	16.2	95	15.4	2	6	248	0.0	1015.3	107	0.051	0.6
20090629 08:05	16.3	16.3	16.3	94	15.3	3	8	248	0.0	1015.5	111	0.000	0.6
20090629 08:10	16.3	16.3	16.3	94	15.4	3	8	248	0.0	1015.5	125	0.000	0.6
20090629 08:15	16.3	16.3	16.3	94	15.4	5	8	270	0.0	1015.6	125	0.000	0.7
20090629 08:20	16.3	16.3	16.3	94	15.4	3	6	22	0.0	1015.5	126	0.000	0.7
20090629 08:25	16.4	16.4	16.4	94	15.5	3	8	292	0.0	1015.4	136	0.000	0.7
20090629 08:30	16.6	16.6	16.6	93	15.4	2	5	292	0.0	1015.5	144	0.000	0.7
20090629 08:35	16.7	16.7	16.7	93	15.5	2	5	292	0.0	1015.6	159	0.000	0.8
20090629 08:40	16.8	16.8	16.8	93	15.6	2	6	202	0.0	1015.6	191	0.000	1.0
20090629 08:45	16.9	16.9	16.9	92	15.6	3	8	202	0.0	1015.6	233	0.000	1.2
20090629 08:50	17.1	17.1	17.1	92	15.7	2	6	292	0.0	1015.7	263	0.000	1.3
20090629 08:55	17.2	17.2	17.2	91	15.7	3	6	292	0.0	1015.7	254	0.000	1.4
20090629 09:00	17.3	17.3	17.3	90	15.6	5	10	292	0.0	1015.7	258	0.102	1.4
20090629 09:05	17.4	17.4	17.4	89	15.6	5	8	292	0.0	1015.6	309	0.000	1.5
20090629 09:10	17.6	17.6	17.6	89	15.7	3	8	292	0.0	1015.6	303	0.000	1.7
20090629 09:15	17.7	17.7	17.7	88	15.7	5	6	270	0.0	1015.6	414	0.000	1.9
20090629 09:20	17.8	17.8	17.8	88	15.8	5	6	270	0.0	1015.6	369	0.000	2.0
20090629 09:25	18.1	18.1	18.1	89	16.3	2	5	292	0.0	1015.4	578	0.000	1.7
20090629 09:30	18.4	18.4	18.4	87	16.2	5	8	292	0.0	1015.4	502	0.000	2.4
20090629 09:35	18.6	18.6	18.6	86	16.2	5	10	292	0.0	1015.4	326	0.000	2.2
20090629 09:40	18.4	18.4	18.4	85	15.9	3	8	270	0.0	1015.5	296	0.000	2.2
20090629 09:45	18.4	18.4	18.4	85	15.9	5	10	270	0.0	1015.5	309	0.000	2.4
20090629 09:50	18.6	18.6	18.6	86	16.2	3	6	270	0.0	1015.5	364	0.000	2.7
20090629 09:55	18.6	18.6	18.6	85	16.0	3	8	292	0.0	1015.5	207	0.000	2.3
20090629 10:00	18.6	18.6	18.6	85	16.0	6	14	292	0.0	1015.6	174	0.203	2.3
20090629 10:05	18.4	18.4	18.4	85	15.9	3	5	292	0.0	1015.8	199	0.000	2.6
20090629 10:10	18.4	18.4	18.4	86	16.1	2	6	292	0.0	1015.7	335	0.000	3.2
20090629 10:15	18.8	18.8	18.8	85	16.2	3	10	292	0.0	1015.5	732	0.000	4.2
20090629 10:20	19.2	19.2	19.2	84	16.4	5	10	270	0.0	1015.6	795	0.000	4.5
20090629 10:25	19.7	19.7	19.7	82	16.6	3	11	292	0.2	1015.6	657	0.000	3.9
20090629 10:30	19.9	19.9	19.9	81	16.5	3	14	315	0.0	1015.4	242	0.000	2.9
20090629 10:35	19.9	19.9	19.9	81	16.5	2	5	315	0.0	1015.5	476	0.000	4.1
20090629 10:40	20.0	20.0	20.0	81	16.6	3	6	315	0.0	1015.5	741	0.000	4.7
20090629 10:45	20.3	20.3	20.3	81	16.9	2	8	292	0.0	1015.5	776	0.000	5.1
20090629 10:50	20.3	20.3	20.3	79	16.6	2	10	315	0.0	1015.5	346	0.000	4.2
20090629 10:55	20.4	20.4	20.4	81	17.1	2	6	22	0.0	1015.5	706	0.000	5.2
20090629 11:00	20.7	20.7	20.7	79	16.9	3	8	292	0.0	1015.5	782	0.330	5.5
20090629 11:05	20.9	20.9	20.9	77	16.7	3	10	292	0.0	1015.5	609	0.000	5.0
20090629 11:10	20.9	20.9	20.9	77	16.7	2	6	315	0.0	1015.6	788	0.000	5.5
20090629 11:15	20.9	20.9	20.9	79	17.2	5	11	22	0.0	1015.6	815	0.000	6.0
20090629 11:20	21.2	21.2	21.2	78	17.2	2	8	0	0.0	1015.6	818	0.000	6.2
20090629 11:25	21.6	21.6	21.6	77	17.3	2	8	338	0.0	1015.5	811	0.000	6.3
20090629 11:30	21.7	21.7	21.7	75	17.1	2	10	338	0.0	1015.5	827	0.000	6.5
20090629 11:35	21.8	21.8	21.8	73	16.7	3	8	0	0.0	1015.4	822	0.000	5.6
20090629 11:40	21.8	21.8	21.8	73	16.7	5	11	22	0.0	1015.5	752	0.000	6.6
20090629 11:45	21.8	21.8	21.8	76	17.4	2	6	45	0.0	1015.5	856	0.000	6.9
20090629 11:50	21.9	21.9	21.9	73	16.8	3	8	0	0.0	1015.4	854	0.000	7.0
20090629 11:55	22.1	22.1	22.1	72	16.8	3	11	292	0.2	1015.5	874	0.000	7.2
20090629 12:00	22.4	22.4	22.4	71	16.9	2	8	292	0.0	1015.4	884	0.483	7.2
20090629 12:05	22.5	22.5	22.5	70	16.7	2	6	292	0.0	1015.4	901	0.000	7.4
20090629 12:10	22.6	22.6	22.6	71	17.1	3	8	22	0.0	1015.3	890	0.000	7.4
20090629 12:15	22.8	22.8	22.8	70	17.1	5	11	292	0.0	1015.3	899	0.000	7.5
20090629 12:20	22.9	22.9	22.9	68	16.7	5	11	22	0.0	1015.3	875	0.000	7.5
20090629 12:25	22.6	22.6	22.6	68	16.4	3	14	45	0.0	1015.3	883	0.000	7.6
20090629 12:30	22.6	22.6	22.6	68	16.4	3	6	45	0.0	1015.3	860	0.000	7.6
20090629 12:35	22.8	22.8	22.8	69	16.8	2	10	0	0.0	1015.2	902	0.000	7.1
20090629 12:40	22.8	22.8	22.8	68	16.6	3	8	22	0.0	1015.2	972	0.000	7.4
20090629 12:45	23.0	23.0	23.0	72	17.7	3	8	68	0.0	1015.2	817	0.000	6.6
20090629 12:50	22.7	22.7	22.7	69	16.7	8	18	22	0.0	1015.2	366	0.000	4.8
20090629 12:55	22.3	22.3	22.3	70	16.5	8	18	22	0.2	1015.2	329	0.000	3.9
20090629 13:00	22.2	22.2	22.2	69	16.3	5	14	45	0.0	1015.2	713	0.483	5.8
20090629 13:05	22.4	22.4	22.4	70	16.7	6	14	22	0.0	1015.3	1049	0.000	7.6
20090629 13:10	22.9	22.9	22.9	67	16.5	5	16	0	0.0	1015.3	1088	0.000	7.9
20090629 13:15	23.1	23.1	23.1	67	16.6	6	16	315	0.0	1015.3	495	0.000	5.0
20090629 13:20	22.8	22.8	22.8	65	15.8	5	11	22	0.0	1015.3	245	0.000	3.5
20090629 13:25	22.6	22.6	22.6	67	16.2	2	8	22	0.0	1015.2	266	0.000	5.8
20090629 13:30	23.0	23.0	23.0	67	16.5	3	6	22	0.0	1015.2	989	0.000	8.0
20090629 13:35	23.2	23.2	23.2	66	16.5	5	13	45	0.0	1015.2	1009	0.000	8.0
20090629 13:40	23.5	23.5	23.5	64	16.3	5	14	315	0.0	1015.2	1046	0.000	7.7
20090629 13:45	23.7	23.7	23.7	63	16.2	5	11	315	0.0	1015.1	386	0.000	5.3
20090629 13:50	23.6	23.6	23.6	60	15.3	5	10	315	0.0	1015.2	965	0.000	6.9
20090629 13:55	23.8	23.8	23.8	62	16.1	5	13	292	0.0	1015.0	892	0.000	6.8
20090629 14:00	23.8	23.8	23.8	61	15.8	5	8	292	0.0	1015.0	389	0.457	5.2
20090629 14:05	23.8	23.8	23.8	63	16.3	3	8	292	0.0	1015.2	362	0.000	5.7
20090629 14:10	23.7	23.7	23.7	61	15.7	5	8	292	0.0	1015.1	323	0.000	6.1
20090629 14:15	23.5	23.5	23.5	60	15.3	2	6	292	0.0	1015.1	343	0.000	5.0
20090629 14:20	23.7	23.7	23.7	65	16.7	2	8	292	0.0	1014.9	932	0.000	7.6
20090629 14:25	24.1	24.1	25.3	61	16.1	3	11	22	0.2	1014.9	872	0.000	7.3
20090629 14:30	24.4	24.4	25.5	61	16.4	3	11	292	0.0	1014.8	880	0.000	7.3
20090629 14:35	24.4	24.4	25.6	59	15.9	5	11	45	0.0	1014.8	869	0.000	7.2
20090629 14:40	24.3	24.3	25.4	62	16.5	5	11	45	0.0	1014.8	840	0.000	6.9
20090629 14:45	24.4	24.4	25.5	63	16.9	5	11	22	0.0	1014.8	831	0.000	6.4
20090629 14:50	24.6	24.6	25.7	58	15.8	3	10	292	0.0	1014.7	859	0.000	7.0
20090629 14:55	24.7	24.7	25.8	57	15.6	5	14	22	0.0	1014.8	874	0.000	7.0
20090629 15:00	24.9	24.9	25.9	60	16.6	3	10	315	0.0	1014.6	885	0.483	6.8
20090629 15:05	25.1	25.1	26.0	59	16.5	5	16	22	0.0	1014.7	887	0.000	6.7
20090629 15:10	25.2	25.2	26.1	56	15.8	5	11	315	0.0	1014.7	872	0.000	6.7
20090629 15:15	24.9	24.9	25.9	55	15.3	5	10	22	0.0	1014.8	853	0.000	6.5
20090629 15:20	25.0	25.0	26.0	59	16.4	6	16	292	0.0	1014.7	762	0.000	5.6
20090629 15:25	25.2	25.2	26.1	60	16.8	3	8	292	0.0	1014.6	916	0.000	6.2
20090629 15:30	25.3	25.3	26.3	61	17.3	6	16	22	0.0	1014.5	890	0.000	5.7
20090629 15:35	25.2	25.2	26.1	57	16.1	8	18	22	0.0	1014.3	874	0.000	6.0
20090629 15:40	24.9	24.9	25.9	56	15.5	6	13	68	0.0	1014.6	818	0.000	5.6
20090629 15:45	24.9	24.9	25.9	60	16.6	5	11	45	0.0	1014.5	841	0.000	5.6
20090629 15:50	25.1	25.1	26.1	66	18.2	3	11	0	0.0	1014.5	838	0.000	5.5
20090629 15:55	25.5	25.5	26.4	57	16.3	3	10	338	0.0	1014.5	339	0.000	4.0
20090629 16:00	25.4	25.4	26.3	58	16.5	2	10	315	0.0	1014.5	537	0.508	4.5
20090629 16:05	25.5	25.5	26.4	57	16.3	6	11	315	0.0	1014.4	776	0.000	5.0
20090629 16:10	25.3	25.3	26.2	53	15.1	10	19	22	0.0	1014.5	765	0.000	4.9
20090629 16:15	24.9	24.9	25.9	56	15.5	11	23	22	0.0	1014.5	750	0.000	4.4
20090629 16:20	24.7	24.7	25.8	60	16.4	10	23	22	0.0	1014.5	729	0.000	4.5
20090629 16:25	24.7	24.7	25.7	57	15.6	16	23	22	0.2	1014.7	698	0.000	4.4
20090629 16:30	24.4	24.4	25.6	57	15.4	13	19	22	0.0	1014.7	686	0.000	3.8
20090629 16:35	24.4	24.4	25.6	60	16.2	10	18	22	0.0	1014.7	702	0.000	4.0
20090629 16:40	24.4	24.4	25.5	60	16.1	11	18	45	0.0	1014.5	188	0.000	3.3
20090629 16:45	24.2	24.2	25.4	59	15.7	6	16	45	0.0	1014.5	548	0.000	3.5
20090629 16:50	24.4	24.4	25.5	60	16.1	8	14	45	0.0	1014.5	637	0.000	3.5
20090629 16:55	24.5	24.5	25.6	57	15.4	5	14	68	0.0	1014.6	629	0.000	3.4
20090629 17:00	24.6	24.6	25.7	56	15.2	6	11	22	0.0	1014.5	607	0.457	3.3
20090629 17:05	24.9	24.9	25.9	55	15.3	2	10	292	0.0	1014.6	611	0.000	3.2
20090629 17:10	25.3	25.3	26.2	57	16.2	2	8	22	0.0	1014.6	614	0.000	3.0
20090629 17:15	25.7	25.7	26.4	53	15.4	3	10	315	0.0	1014.5	566	0.000	2.8
20090629 17:20	25.9	25.9	26.7	55	16.2	2	8	22	0.0	1014.5	578	0.000	2.8
20090629 17:25	26.2	26.2	26.8	52	15.5	3	8	292	0.0	1014.4	573	0.000	2.6
20090629 17:30	26.2	26.2	26.8	52	15.5	2	6	22	0.0	1014.3	579	0.000	2.5
20090629 17:35	26.3	26.3	26.9	52	15.7	2	10	338	0.0	1014.3	580	0.000	2.4
20090629 17:40	25.9	25.9	26.6	51	15.0	8	16	22	0.0	1014.4	539	0.000	2.2
20090629 17:45	25.6	25.6	26.4	54	15.6	3	8	22	0.0	1014.3	497	0.000	2.1
20090629 17:50	25.3	25.3	26.1	54	15.3	5	10	22	0.0	1014.3	473	0.000	2.0
20090629 17:55	25.0	25.0	25.9	52	14.4	5	10	45	0.0	1014.5	382	0.000	1.8
20090629 18:00	24.8	24.8	25.8	54	14.9	5	10	68	0.0	1014.4	467	0.356	1.7
20090629 18:05	24.8	24.8	25.8	55	15.1	8	16	22	0.0	1014.4	457	0.000	1.6
20090629 18:10	24.6	24.6	25.7	54	14.6	8	14	22	0.0	1014.4	429	0.000	1.5
20090629 18:15	24.6	24.6	25.7	54	14.6	6	11	22	0.0	1014.5	406	0.000	1.4
20090629 18:20	24.5	24.5	25.6	54	14.6	5	8	22	0.0	1014.4	389	0.000	1.3
20090629 18:25	24.7	24.7	25.8	55	15.1	2	8	22	0.0	1014.5	382	0.000	1.3
20090629 18:30	24.9	24.9	25.9	53	14.7	2	5	338	0.0	1014.5	364	0.000	1.2
20090629 18:35	24.9	24.9	25.8	52	14.3	5	11	22	0.0	1014.6	305	0.000	1.1
20090629 18:40	24.7	24.7	25.8	55	15.1	5	11	22	0.0	1014.7	232	0.000	1.0
20090629 18:45	24.3	24.3	25.5	58	15.5	6	18	22	0.0	1014.7	251	0.000	0.9
20090629 18:50	24.2	24.2	25.4	60	15.9	6	14	22	0.0	1014.8	309	0.000	0.9
20090629 18:55	24.2	24.2	25.4	58	15.4	8	13	22	0.0	1014.7	315	0.000	0.8
20090629 19:00	24.1	24.1	25.3	61	16.1	6	10	315	0.0	1014.9	283	0.254	0.7
20090629 19:05	23.8	23.8	23.8	62	16.1	8	16	0	0.0	1014.8	172	0.000	0.4
20090629 19:10	23.6	23.6	23.6	65	16.6	6	11	22	0.0	1014.8	315	0.000	0.5
20090629 19:15	23.3	23.3	23.3	68	17.1	5	10	45	0.0	1015.0	279	0.000	0.2
20090629 19:20	23.2	23.2	23.2	66	16.5	6	10	45	0.0	1014.9	289	0.000	0.0
20090629 19:25	23.2	23.2	23.2	65	16.2	6	11	45	0.0	1014.9	196	0.000	0.0
20090629 19:30	23.1	23.1	23.1	66	16.4	3	6	45	0.0	1015.0	121	0.000	0.0
20090629 19:35	23.1	23.1	23.1	65	16.1	2	5	45	0.0	1015.0	109	0.000	0.0
20090629 19:40	23.0	23.0	23.0	65	16.1	2	8	45	0.0	1015.0	88	0.000	0.0
20090629 19:45	22.9	22.9	22.9	65	16.0	3	6	45	0.0	1015.0	82	0.000	0.0
20090629 19:50	22.9	22.9	22.9	66	16.2	3	8	22	0.0	1015.0	75	0.000	0.0
20090629 19:55	22.8	22.8	22.8	65	15.9	5	10	22	0.0	1015.1	68	0.000	0.0
20090629 20:00	22.8	22.8	22.8	65	15.8	5	10	45	0.0	1015.1	67	0.127	0.0
20090629 20:05	22.7	22.7	22.7	66	16.0	3	8	22	0.0	1015.0	63	0.000	0.0
20090629 20:10	22.6	22.6	22.6	66	15.9	3	8	22	0.0	1015.1	59	0.000	0.0
20090629 20:15	22.5	22.5	22.5	67	16.1	3	6	45	0.0	1015.3	58	0.000	0.0
20090629 20:20	22.4	22.4	22.4	68	16.2	2	5	45	0.0	1015.4	49	0.000	0.0
20090629 20:25	22.4	22.4	22.4	68	16.2	2	5	45	0.0	1015.5	45	0.000	0.0
20090629 20:30	22.3	22.3	22.3	69	16.3	2	5	45	0.0	1015.5	44	0.000	0.0
20090629 20:35	22.1	22.1	22.1	69	16.1	0	3	45	0.0	1015.5	34	0.000	0.0
20090629 20:40	21.9	21.9	21.9	69	16.0	2	5	45	0.0	1015.5	26	0.000	0.0
20090629 20:45	21.8	21.8	21.8	70	16.1	2	5	45	0.0	1015.5	19	0.000	0.0
20090629 20:50	21.7	21.7	21.7	70	15.9	3	8	45	0.0	1015.5	20	0.000	0.0
20090629 20:55	21.6	21.6	21.6	71	16.1	6	10	45	0.0	1015.6	19	0.000	0.0
20090629 21:00	21.4	21.4	21.4	74	16.6	3	10	68	0.0	1015.6	17	0.051	0.0
20090629 21:05	21.2	21.2	21.2	76	16.8	2	6	90	0.0	1015.7	14	0.000	0.0
20090629 21:10	21.1	21.1	21.1	78	17.1	2	5	90	0.0	1015.8	9	0.000	0.0
20090629 21:15	20.9	20.9	20.9	78	17.0	5	10	112	0.0	1015.8	5	0.000	0.0
20090629 21:20	20.8	20.8	20.8	79	17.0	5	8	135	0.0	1015.8	0	0.000	0.0
20090629 21:25	20.7	20.7	20.7	79	16.9	3	6	135	0.0	1015.8	0	0.000	0.0
20090629 21:30	20.6	20.6	20.6	79	16.8	3	8	135	0.0	1015.9	0	0.000	0.0
20090629 21:35	20.5	20.5	20.5	80	16.9	5	10	135	0.0	1015.9	0	0.000	0.0
20090629 21:40	20.3	20.3	20.3	79	16.6	5	13	158	0.0	1016.0	0	0.000	0.0
20090629 21:45	20.2	20.2	20.2	79	16.4	5	8	135	0.0	1016.1	0	0.000	0.0
20090629 21:50	19.9	19.9	19.9	80	16.4	2	6	158	0.0	1016.2	0	0.000	0.0
20090629 21:55	19.8	19.8	19.8	80	16.2	2	8	158	0.0	1016.2	0	0.000	0.0
20090629 22:00	19.6	19.6	19.6	81	16.3	0	6	158	0.0	1016.2	0	0.025	0.0
20090629 22:05	19.4	19.4	19.4	81	16.1	0	5	158	0.0	1016.0	0	0.000	0.0
20090629 22:10	19.3	19.3	19.3	81	16.0	0	5	158	0.0	1016.1	0	0.000	0.0
20090629 22:15	19.2	19.2	19.2	80	15.7	0	3	158	0.0	1016.0	0	0.000	0.0
20090629 22:20	19.1	19.1	19.1	81	15.8	0	5	158	0.0	1016.1	0	0.000	0.0
20090629 22:25	19.1	19.1	19.1	81	15.7	2	6	158	0.0	1016.3	0	0.000	0.0
20090629 22:30	18.9	18.9	18.9	80	15.4	0	5	158	0.0	1016.3	0	0.000	0.0
20090629 22:35	18.8	18.8	18.8	81	15.5	0	2	158	0.0	1016.4	0	0.000	0.0
20090629 22:40	18.8	18.8	18.8	81	15.4	0	2	158	0.0	1016.3	0	0.000	0.0
20090629 22:45	18.7	18.7	18.7	82	15.5	0	2	158	0.0	1016.3	0	0.000	0.0
20090629 22:50	18.6	18.6	18.6	82	15.4	0	0	-100000	0.0	1016.2	0	0.000	0.0
20090629 22:55	18.4	18.4	18.4	82	15.3	2	6	158	0.0	1016.2	0	0.000	0.0
20090629 23:00	18.4	18.4	18.4	83	15.5	0	5	158	0.0	1016.2	0	0.025	0.0
20090629 23:05	18.3	18.3	18.3	83	15.4	2	6	158	0.0	1016.2	0	0.000	0.0
20090629 23:10	18.3	18.3	18.3	83	15.3	2	6	158	0.0	1016.2	0	0.000	0.0
20090629 23:15	18.1	18.1	18.1	84	15.4	3	6	158	0.0	1016.3	0	0.000	0.0
20090629 23:20	18.0	18.0	18.0	84	15.3	5	8	158	0.0	1016.5	0	0.000	0.0
20090629 23:25	17.8	17.8	17.8	85	15.3	5	6	158	0.0	1016.5	0	0.000	0.0
20090629 23:30	17.8	17.8	17.8	86	15.4	3	6	158	0.0	1016.4	0	0.000	0.0
20090629 23:35	17.8	17.8	17.8	86	15.4	5	8	158	0.0	1016.4	0	0.000	0.0
20090629 23:40	17.7	17.7	17.7	86	15.3	3	8	202	0.0	1016.5	0	0.000	0.0
20090629 23:45	17.7	17.7	17.7	86	15.3	5	8	202	0.0	1016.5	0	0.000	0.0
20090629 23:50	17.7	17.7	17.7	86	15.3	3	8	202	0.0	1016.4	0	0.000	0.0
20090629 23:55	17.6	17.6	17.6	86	15.2	3	10	202	0.0	1016.5	0	0.000	0.0



Please note the license to use and transfer of this data:
http://creativecommons.org/licenses/by-nc-sa/3.0/deed.en

Bitte beachten sie die Lizenz zur Verwertung und Weitergabe der Daten:
http://creativecommons.org/licenses/by-nc-sa/3.0/deed.de

zurück zur Übersicht der Archivdaten (Monats und Tagesdaten)

Cookies helfen bei der Bereitstellung von Inhalten. Durch die Nutzung dieser Seiten erklärst du dich damit einverstanden, dass Cookies auf deinem Rechner gespeichert werden. Weitere Information